M I D A S
Marine Information and Data Acquisition System
Tripno 1504 of the Zeeleeuw from 2008-06-16 07:05:14 to 2008-06-16 11:18:40
Back to CruiseResearch ActivitiesStationsMapUnderway DataData graphs

EquipmentUnitsComments
TimeDGPSUTC
LatitudeDGPSDM.mWGS84
LongitudeDGPSDM.mWGS84
SpeedMeteo Stationm/sRelative wind speed
DirectionMeteo StationdegRelative wind direction
TemperatureMeteo Stationdeg CelciusAir temperature
PressureMeteo StationPaAtmospheric pressure
HumidityMeteo Station%Relative humidity
Missing or incorrect values are displayed as -999
Metereological data collected by the RV Zeeleeuw from 2008-06-16 07:05:52 to 2008-06-16 11:28:09
Time Latitude Longitude Speed Direction Temperature Pressure Humidity
2008-06-16 07:06 51°13.623 2°56.048 2.4 344 13.9 101090 64
2008-06-16 07:07 51°13.63 2°56.025 0.7 350 13.9 101100 65
2008-06-16 07:08 51°13.655 2°55.927 0.7 25 13.9 101090 65
2008-06-16 07:09 51°13.68 2°55.817 0.9 5 13.9 101090 66
2008-06-16 07:10 51°13.688 2°55.761 1.4 349 13.8 101090 65
2008-06-16 07:11 51°13.699 2°55.768 2.4 28 13.7 101090 65
2008-06-16 07:12 51°13.715 2°55.743 1 355 13.5 101090 66
2008-06-16 07:13 51°13.817 2°55.65 2.3 337 13.4 101100 66
2008-06-16 07:14 51°13.941 2°55.551 2.3 330 13.4 101100 67
2008-06-16 07:15 51°14.074 2°55.447 2.2 326 13.4 101100 67
2008-06-16 07:16 51°14.205 2°55.329 4.1 338 13.4 101100 66
2008-06-16 07:17 51°14.317 2°55.151 3.9 322 13.4 101090 65
2008-06-16 07:18 51°14.377 2°54.897 6.1 331 13.5 101090 67
2008-06-16 07:19 51°14.372 2°54.582 6.8 334 13.5 101090 65
2008-06-16 07:20 51°14.305 2°54.257 6.6 326 13.4 101090 65
2008-06-16 07:21 51°14.234 2°53.933 4.7 326 13.4 101090 65
2008-06-16 07:22 51°14.161 2°53.608 5.4 328 13.4 101100 64
2008-06-16 07:23 51°14.087 2°53.288 6.1 330 13.4 101090 65
2008-06-16 07:24 51°14.006 2°52.966 7.4 331 13.3 101090 66
2008-06-16 07:25 51°13.929 2°52.64 7.1 327 13.3 101090 67
2008-06-16 07:26 51°13.838 2°52.324 6.8 326 13.3 101090 67
2008-06-16 07:27 51°13.727 2°52.025 6.1 330 13.3 101090 67
2008-06-16 07:28 51°13.628 2°51.714 6.8 328 13.2 101090 68
2008-06-16 07:29 51°13.513 2°51.42 7.6 329 13.2 101100 68
2008-06-16 07:30 51°13.396 2°51.128 8.4 326 13.2 101090 68
2008-06-16 07:31 51°13.288 2°50.827 7.7 326 13.2 101090 69
2008-06-16 07:32 51°13.182 2°50.523 6.6 328 13.2 101100 68
2008-06-16 07:33 51°13.08 2°50.214 8.1 325 13.2 101090 68
2008-06-16 07:34 51°12.974 2°49.912 7.4 327 13.3 101090 69
2008-06-16 07:35 51°12.861 2°49.616 6.5 323 13.2 101080 69
2008-06-16 07:36 51°12.753 2°49.315 6.9 330 13.2 101100 69
2008-06-16 07:37 51°12.643 2°49.014 6 328 13.3 101090 69
2008-06-16 07:38 51°12.537 2°48.71 7.5 324 13.3 101080 69
2008-06-16 07:39 51°12.431 2°48.406 7.4 322 13.2 101090 68
2008-06-16 07:40 51°12.319 2°48.109 7.7 323 13.2 101080 68
2008-06-16 07:41 51°12.216 2°47.803 6.2 327 13.2 101090 68
2008-06-16 07:42 51°12.124 2°47.489 6.7 326 13.2 101090 67
2008-06-16 07:43 51°12.049 2°47.163 5.8 322 13.3 101090 67
2008-06-16 07:44 51°11.966 2°46.843 5.8 321 13.2 101090 67
2008-06-16 07:45 51°11.883 2°46.521 5 322 13.3 101090 67
2008-06-16 07:46 51°11.796 2°46.204 4.3 321 13.3 101090 67
2008-06-16 07:47 51°11.714 2°45.883 4.1 322 13.3 101080 67
2008-06-16 07:48 51°11.634 2°45.562 5.5 321 13.3 101090 67
2008-06-16 07:49 51°11.562 2°45.236 4.9 323 13.3 101090 66
2008-06-16 07:50 51°11.495 2°44.908 4.6 327 13.4 101090 66
2008-06-16 07:51 51°11.424 2°44.582 5.8 324 13.4 101090 67
2008-06-16 07:52 51°11.358 2°44.253 5.4 326 13.3 101090 67
2008-06-16 07:53 51°11.287 2°43.927 4.9 326 13.4 101100 68
2008-06-16 07:54 51°11.218 2°43.6 4.7 333 13.4 101100 67
2008-06-16 07:55 51°11.163 2°43.268 5.3 327 13.4 101100 67
2008-06-16 07:56 51°11.109 2°42.936 5.2 327 13.4 101100 65
2008-06-16 07:57 51°11.049 2°42.607 5.4 329 13.5 101110 66
2008-06-16 07:58 51°10.982 2°42.282 4.5 329 13.5 101110 65
2008-06-16 07:59 51°10.908 2°41.963 5.6 331 13.5 101100 64
2008-06-16 08:00 51°10.843 2°41.641 4.9 335 13.6 101110 65
2008-06-16 08:01 51°10.785 2°41.315 3.7 335 13.6 101110 65
2008-06-16 08:02 51°10.729 2°40.989 4.5 331 13.6 101100 66
2008-06-16 08:03 51°10.674 2°40.664 3.7 332 13.7 101100 65
2008-06-16 08:04 51°10.615 2°40.343 3.9 333 13.7 101100 63
2008-06-16 08:05 51°10.561 2°40.021 4.8 333 13.7 101100 63
2008-06-16 08:06 51°10.502 2°39.702 4.5 331 13.8 101100 64
2008-06-16 08:07 51°10.427 2°39.393 4.6 332 13.7 101100 63
2008-06-16 08:08 51°10.365 2°39.073 4.2 335 13.7 101100 62
2008-06-16 08:09 51°10.32 2°38.745 3.7 336 13.7 101100 62
2008-06-16 08:10 51°10.271 2°38.42 3.6 328 13.7 101100 61
2008-06-16 08:11 51°10.215 2°38.1 4.6 332 13.8 101100 63
2008-06-16 08:12 51°10.158 2°37.78 4.2 333 13.9 101100 63
2008-06-16 08:13 51°10.099 2°37.459 4.2 337 13.9 101100 62
2008-06-16 08:14 51°10.05 2°37.133 3.9 335 13.9 101100 62
2008-06-16 08:15 51°9.997 2°36.809 5.1 336 13.9 101090 63
2008-06-16 08:16 51°9.939 2°36.489 4.9 334 13.9 101090 64
2008-06-16 08:17 51°9.887 2°36.167 4.8 332 13.8 101100 64
2008-06-16 08:18 51°9.833 2°35.846 4.4 334 13.8 101100 64
2008-06-16 08:19 51°9.787 2°35.522 5.2 332 13.9 101090 64
2008-06-16 08:20 51°9.732 2°35.203 4.5 329 13.9 101100 64
2008-06-16 08:21 51°9.687 2°34.881 4.9 328 13.9 101100 64
2008-06-16 08:22 51°9.641 2°34.559 4.4 330 13.8 101110 64
2008-06-16 08:23 51°9.581 2°34.247 4.3 341 13.9 101110 64
2008-06-16 08:24 51°9.537 2°34.022 0.9 5 13.9 101110 64
2008-06-16 08:25 51°9.486 2°33.953 2.4 245 14.1 101100 67
2008-06-16 08:26 51°9.464 2°33.945 3 268 14.4 101110 66
2008-06-16 08:27 51°9.461 2°33.939 1.8 263 14.5 101100 63
2008-06-16 08:28 51°9.459 2°33.934 2.2 262 14.7 101110 63
2008-06-16 08:29 51°9.458 2°33.93 3 262 14.9 101100 62
2008-06-16 08:30 51°9.457 2°33.926 1.6 33 15 101110 61
2008-06-16 08:31 51°9.457 2°33.922 3.5 252 15 101110 60
2008-06-16 08:32 51°9.456 2°33.917 2.2 260 15.1 101110 61
2008-06-16 08:33 51°9.456 2°33.913 2.5 250 15.1 101100 60
2008-06-16 08:34 51°9.455 2°33.909 2.9 264 15.2 101100 61
2008-06-16 08:35 51°9.455 2°33.904 4.9 256 15.2 101110 63
2008-06-16 08:36 51°9.454 2°33.9 4 261 15.2 101110 65
2008-06-16 08:37 51°9.454 2°33.895 3.6 261 15.2 101110 63
2008-06-16 08:38 51°9.454 2°33.891 5.1 259 15.1 101110 63
2008-06-16 08:39 51°9.454 2°33.889 2.6 264 15.2 101110 63
2008-06-16 08:40 51°9.455 2°33.886 4 263 15 101110 63
2008-06-16 08:41 51°9.455 2°33.884 4.6 259 14.9 101110 62
2008-06-16 08:42 51°9.455 2°33.881 4.1 256 14.9 101110 64
2008-06-16 08:43 51°9.456 2°33.88 3.6 262 14.9 101110 63
2008-06-16 08:44 51°9.457 2°33.879 2.2 263 14.8 101110 62
2008-06-16 08:45 51°9.459 2°33.879 2.5 263 14.7 101110 62
2008-06-16 08:46 51°9.46 2°33.88 3.4 264 14.8 101110 65
2008-06-16 08:47 51°9.462 2°33.881 3.1 268 14.6 101110 63
2008-06-16 08:48 51°9.463 2°33.882 4.1 261 14.5 101110 64
2008-06-16 08:49 51°9.464 2°33.884 2.5 258 14.3 101110 64
2008-06-16 08:50 51°9.466 2°33.887 4.2 328 14.3 101120 63
2008-06-16 08:51 51°9.468 2°33.89 2.3 265 14.3 101110 64
2008-06-16 08:52 51°9.458 2°33.924 3.8 315 14.4 101120 64
2008-06-16 08:53 51°9.478 2°34 4.9 337 14.4 101110 62
2008-06-16 08:54 51°9.561 2°34.019 7.6 341 14.2 101110 64
2008-06-16 08:55 51°9.684 2°34.013 6.1 344 13.9 101100 66
2008-06-16 08:56 51°9.76 2°34.026 5.9 349 13.7 101110 65
2008-06-16 08:57 51°9.81 2°34.057 5.1 348 13.6 101110 67
2008-06-16 08:58 51°9.851 2°34.095 4.1 350 13.6 101110 66
2008-06-16 08:59 51°9.891 2°34.134 5.8 346 13.6 101110 67
2008-06-16 09:00 51°9.932 2°34.167 4.7 352 13.5 101110 66
2008-06-16 09:01 51°9.975 2°34.202 5.2 344 13.4 101110 63
2008-06-16 09:02 51°10.022 2°34.241 6 346 13.4 101110 60
2008-06-16 09:03 51°10.07 2°34.283 5.1 339 13.5 101120 65
2008-06-16 09:04 51°10.118 2°34.332 6.1 333 13.6 101120 62
2008-06-16 09:05 51°10.165 2°34.384 5.1 337 13.7 101110 61
2008-06-16 09:06 51°10.209 2°34.44 6.2 338 13.8 101110 63
2008-06-16 09:07 51°10.254 2°34.495 5.8 339 13.8 101120 62
2008-06-16 09:08 51°10.298 2°34.55 6.3 336 13.8 101120 62
2008-06-16 09:09 51°10.343 2°34.605 5.8 337 13.8 101120 62
2008-06-16 09:10 51°10.387 2°34.657 5.5 339 13.8 101120 61
2008-06-16 09:11 51°10.43 2°34.708 5.1 339 14 101120 64
2008-06-16 09:12 51°10.473 2°34.758 5.3 342 13.9 101120 62
2008-06-16 09:13 51°10.513 2°34.81 4.6 340 13.9 101120 62
2008-06-16 09:14 51°10.548 2°34.877 5 324 13.9 101130 65
2008-06-16 09:15 51°10.574 2°34.953 4.2 323 13.9 101120 64
2008-06-16 09:16 51°10.597 2°35.033 4.8 318 14 101120 65
2008-06-16 09:17 51°10.617 2°35.118 6 20 14.1 101120 64
2008-06-16 09:18 51°10.633 2°35.204 4.8 21 14.1 101120 64
2008-06-16 09:19 51°10.653 2°35.288 6.1 320 14.1 101120 64
2008-06-16 09:20 51°10.675 2°35.37 4.5 324 14.1 101120 63
2008-06-16 09:21 51°10.697 2°35.452 5.4 21 14.1 101120 64
2008-06-16 09:22 51°10.718 2°35.533 4.2 320 14.2 101110 64
2008-06-16 09:23 51°10.735 2°35.615 4 23 14.2 101120 63
2008-06-16 09:24 51°10.753 2°35.698 5.7 316 14.2 101130 63
2008-06-16 09:25 51°10.768 2°35.781 6.8 25 14.3 101120 65
2008-06-16 09:26 51°10.781 2°35.865 4.8 36 14.1 101120 62
2008-06-16 09:27 51°10.794 2°35.951 5.6 317 14.1 101120 62
2008-06-16 09:28 51°10.806 2°36.036 6.1 34 14.1 101120 63
2008-06-16 09:29 51°10.816 2°36.121 6.1 34 14.1 101120 64
2008-06-16 09:30 51°10.824 2°36.207 5.5 21 14.1 101110 64
2008-06-16 09:31 51°10.832 2°36.292 6 234 14 101120 64
2008-06-16 09:32 51°10.839 2°36.374 6.7 23 14 101120 64
2008-06-16 09:33 51°10.836 2°36.451 6.3 257 14.1 101120 67
2008-06-16 09:34 51°10.82 2°36.506 4.5 267 14.1 101130 65
2008-06-16 09:35 51°10.808 2°36.548 3.9 262 14 101130 66
2008-06-16 09:36 51°10.802 2°36.588 5 259 14 101130 66
2008-06-16 09:37 51°10.8 2°36.623 6.4 254 14 101130 67
2008-06-16 09:38 51°10.801 2°36.693 5.8 318 14.1 101120 66
2008-06-16 09:39 51°10.874 2°36.764 8.2 341 14.1 101120 64
2008-06-16 09:40 51°10.949 2°36.801 7 339 14 101110 64
2008-06-16 09:41 51°11 2°36.846 7.1 331 13.9 101130 64
2008-06-16 09:42 51°11.041 2°36.891 6.5 331 13.9 101130 64
2008-06-16 09:43 51°11.083 2°36.936 6.3 332 13.8 101130 64
2008-06-16 09:44 51°11.13 2°36.984 7.5 339 13.9 101130 65
2008-06-16 09:45 51°11.178 2°37.028 7.3 336 13.9 101130 65
2008-06-16 09:46 51°11.223 2°37.068 6.5 342 13.9 101130 65
2008-06-16 09:47 51°11.266 2°37.105 6.7 345 13.7 101140 63
2008-06-16 09:48 51°11.313 2°37.139 6.2 346 13.7 101130 65
2008-06-16 09:49 51°11.362 2°37.169 6.8 349 13.5 101130 66
2008-06-16 09:50 51°11.41 2°37.197 6.3 346 13.5 101130 65
2008-06-16 09:51 51°11.457 2°37.228 6.6 343 13.4 101130 66
2008-06-16 09:52 51°11.502 2°37.269 7.3 337 13.5 101140 66
2008-06-16 09:53 51°11.543 2°37.323 6.5 334 13.6 101140 65
2008-06-16 09:54 51°11.581 2°37.386 5.7 335 13.7 101140 64
2008-06-16 09:55 51°11.618 2°37.452 6 334 13.8 101140 65
2008-06-16 09:56 51°11.653 2°37.519 5.9 333 13.9 101140 65
2008-06-16 09:57 51°11.684 2°37.589 5.4 329 13.9 101140 66
2008-06-16 09:58 51°11.709 2°37.662 6 318 14 101140 64
2008-06-16 09:59 51°11.732 2°37.737 5.5 324 14.1 101150 64
2008-06-16 10:00 51°11.754 2°37.811 5.9 329 14.2 101150 64
2008-06-16 10:01 51°11.78 2°37.884 7.9 326 14.2 101150 65
2008-06-16 10:02 51°11.804 2°37.956 6.8 327 14.2 101150 64
2008-06-16 10:03 51°11.83 2°38.027 6.5 327 14.2 101140 64
2008-06-16 10:04 51°11.855 2°38.097 7.2 318 14.2 101150 65
2008-06-16 10:05 51°11.879 2°38.169 8.7 317 14.2 101140 65
2008-06-16 10:06 51°11.9 2°38.24 6.8 316 14.2 101140 66
2008-06-16 10:07 51°11.921 2°38.312 6.6 36 14.2 101140 64
2008-06-16 10:08 51°11.941 2°38.383 8.8 23 14.1 101140 64
2008-06-16 10:09 51°11.961 2°38.457 7.5 33 14 101140 63
2008-06-16 10:10 51°11.982 2°38.53 7.2 316 13.9 101140 66
2008-06-16 10:11 51°12.003 2°38.602 7.3 321 14 101150 68
2008-06-16 10:12 51°12.026 2°38.674 8.9 321 14.1 101140 67
2008-06-16 10:13 51°12.046 2°38.744 7.3 318 14 101140 64
2008-06-16 10:14 51°12.066 2°38.816 8 317 14.1 101140 65
2008-06-16 10:15 51°12.086 2°38.888 7.1 318 14.1 101140 65
2008-06-16 10:16 51°12.107 2°38.961 7.8 320 14.1 101150 66
2008-06-16 10:17 51°12.129 2°39.033 7 326 14.1 101150 64
2008-06-16 10:18 51°12.15 2°39.106 7.9 319 14.2 101150 64
2008-06-16 10:19 51°12.165 2°39.179 5.7 25 14.1 101150 62
2008-06-16 10:20 51°12.166 2°39.253 7.3 19 14.1 101140 66
2008-06-16 10:21 51°12.156 2°39.324 7.5 260 14.2 101150 65
2008-06-16 10:22 51°12.138 2°39.388 4.5 262 14.3 101150 65
2008-06-16 10:23 51°12.124 2°39.441 5.3 261 14.3 101150 65
2008-06-16 10:24 51°12.117 2°39.489 7.6 258 14.3 101150 63
2008-06-16 10:25 51°12.113 2°39.532 6.7 248 14.4 101150 64
2008-06-16 10:26 51°12.112 2°39.57 7.1 247 14.4 101150 63
2008-06-16 10:27 51°12.112 2°39.619 6.6 21 14.5 101150 64
2008-06-16 10:28 51°12.156 2°39.762 12.1 325 14.4 101150 63
2008-06-16 10:29 51°12.251 2°40.012 12.6 328 14.2 101140 62
2008-06-16 10:30 51°12.362 2°40.312 12 325 14.1 101140 65
2008-06-16 10:31 51°12.467 2°40.625 11.3 324 14 101140 64
2008-06-16 10:32 51°12.57 2°40.939 13.7 322 13.9 101130 63
2008-06-16 10:33 51°12.676 2°41.25 12.4 321 13.9 101140 63
2008-06-16 10:34 51°12.787 2°41.557 13 323 14 101140 65
2008-06-16 10:35 51°12.882 2°41.877 13.4 326 14 101140 65
2008-06-16 10:36 51°12.978 2°42.197 12.3 328 13.9 101150 62
2008-06-16 10:37 51°13.072 2°42.516 13 324 13.9 101140 63
2008-06-16 10:38 51°13.163 2°42.839 11.7 321 13.9 101150 63
2008-06-16 10:39 51°13.26 2°43.156 11 322 14 101140 65
2008-06-16 10:40 51°13.358 2°43.471 12 322 14 101150 64
2008-06-16 10:41 51°13.445 2°43.794 11.9 325 13.9 101150 63
2008-06-16 10:42 51°13.541 2°44.111 13.1 326 13.9 101140 62
2008-06-16 10:43 51°13.637 2°44.427 12.1 323 13.8 101140 62
2008-06-16 10:44 51°13.732 2°44.746 13 325 13.8 101150 63
2008-06-16 10:45 51°13.824 2°45.067 11.5 321 13.8 101150 63
2008-06-16 10:46 51°13.916 2°45.39 11 325 13.8 101150 63
2008-06-16 10:47 51°14.005 2°45.714 12 322 13.9 101150 64
2008-06-16 10:48 51°14.098 2°46.038 11.8 321 13.9 101140 63
2008-06-16 10:49 51°14.185 2°46.364 12.5 317 13.9 101150 64
2008-06-16 10:50 51°14.221 2°46.714 11.2 324 13.9 101140 63
2008-06-16 10:51 51°14.255 2°47.061 11.3 322 13.9 101150 63
2008-06-16 10:52 51°14.283 2°47.409 12.8 321 13.9 101160 62
2008-06-16 10:53 51°14.315 2°47.756 12.3 318 14 101150 62
2008-06-16 10:54 51°14.344 2°48.103 10.7 322 13.9 101140 62
2008-06-16 10:55 51°14.381 2°48.457 10 317 13.9 101140 61
2008-06-16 10:56 51°14.415 2°48.801 10.9 317 13.9 101150 61
2008-06-16 10:57 51°14.449 2°49.152 12.4 320 13.8 101140 62
2008-06-16 10:58 51°14.482 2°49.503 11.1 321 13.8 101140 63
2008-06-16 10:59 51°14.518 2°49.862 12.2 320 13.9 101130 63
2008-06-16 11:00 51°14.563 2°50.212 11 317 13.9 101140 63
2008-06-16 11:01 51°14.608 2°50.556 11.7 320 13.9 101140 63
2008-06-16 11:02 51°14.651 2°50.905 13.1 316 13.9 101140 63
2008-06-16 11:03 51°14.69 2°51.255 12.3 319 13.8 101130 61
2008-06-16 11:04 51°14.729 2°51.609 12.5 316 13.8 101140 61
2008-06-16 11:05 51°14.761 2°51.959 10.2 22 13.8 101140 60
2008-06-16 11:06 51°14.781 2°52.31 12 26 13.8 101140 62
2008-06-16 11:07 51°14.791 2°52.652 9.9 24 13.8 101130 66
2008-06-16 11:08 51°14.79 2°53 11.7 23 13.6 101130 63
2008-06-16 11:09 51°14.775 2°53.332 14.1 28 13.6 101140 63
2008-06-16 11:10 51°14.739 2°53.668 11.1 20 13.5 101140 62
2008-06-16 11:11 51°14.697 2°53.998 10.4 21 13.6 101140 64
2008-06-16 11:12 51°14.629 2°54.318 9.8 25 13.6 101130 66
2008-06-16 11:13 51°14.538 2°54.613 10.7 19 13.6 101130 64
2008-06-16 11:14 51°14.433 2°54.902 7.2 24 13.7 101140 64
2008-06-16 11:15 51°14.322 2°55.142 7.4 27 13.7 101150 65
2008-06-16 11:16 51°14.204 2°55.335 7.2 246 13.8 101150 64
2008-06-16 11:17 51°14.083 2°55.442 2.9 263 13.9 101160 63
2008-06-16 11:18 51°13.998 2°55.506 3.6 262 13.9 101160 62
2008-06-16 11:19 51°13.924 2°55.56 4.2 29 13.9 101160 61
2008-06-16 11:20 51°13.854 2°55.605 4.7 23 14 101150 63
2008-06-16 11:21 51°13.806 2°55.642 3.1 33 14 101150 61
2008-06-16 11:22 51°13.766 2°55.669 6.3 22 13.9 101150 60
2008-06-16 11:23 51°13.759 2°55.67 3.9 266 13.8 101140 59
2008-06-16 11:24 51°13.755 2°55.67 5.6 25 13.8 101140 61
2008-06-16 11:25 51°13.726 2°55.702 5.5 258 13.9 101140 62
2008-06-16 11:26 51°13.674 2°55.838 6.2 26 13.9 101140 60
2008-06-16 11:27 51°13.643 2°55.955 1.7 21 14 101150 59